Terminal Aerodrome Forecast
Issued by NWS

Home | Current Version | Previous Version | Text Only | Print | Product List | Glossary On
Versions: 1 2 3 4 5 6 7 8 9 10 11 12 13 14 15 16 17
000
FTUS45 KTFX 062338
TAFHLN
TAF
KHLN 062338Z 0700/0724 VRB06KT P6SM SKC
     FM071500 34008KT P6SM SCT050 BKN120
     FM072100 36010KT P6SM SCT040 BKN060 PROB30 0721/0724 -SHRA=

USA.gov is the U.S. government's official web portal to all federal, state and local government web resources and services.